createdAt,value
2023-05-11T00:00:06.149Z,6.93
2023-05-11T00:02:33.324Z,6.35
2023-05-11T00:05:00.465Z,6.72
2023-05-11T00:07:27.520Z,6.60
2023-05-11T00:09:54.677Z,6.65
2023-05-11T00:12:21.910Z,6.28
2023-05-11T00:14:48.964Z,7.53
2023-05-11T00:17:16.141Z,6.88
2023-05-11T00:19:43.256Z,7.78
2023-05-11T00:22:10.542Z,7.63
2023-05-11T00:24:37.697Z,7.82
2023-05-11T00:27:04.804Z,7.60
2023-05-11T00:29:31.816Z,7.80
2023-05-11T00:31:58.914Z,7.80
2023-05-11T00:34:25.990Z,7.70
2023-05-11T00:36:53.422Z,7.60
2023-05-11T00:39:20.596Z,7.47
2023-05-11T00:41:47.764Z,8.70
2023-05-11T00:44:15.107Z,7.80
2023-05-11T00:46:42.968Z,7.97
2023-05-11T00:49:10.156Z,8.00
2023-05-11T00:51:37.491Z,7.82
2023-05-11T00:54:04.822Z,7.45
2023-05-11T00:56:31.890Z,7.35
2023-05-11T00:58:59.097Z,7.90
2023-05-11T01:01:26.611Z,7.45
2023-05-11T01:03:53.775Z,7.32
2023-05-11T01:06:28.386Z,6.90
2023-05-11T01:09:00.805Z,7.65
2023-05-11T01:11:38.344Z,7.60
2023-05-11T01:14:13.385Z,8.15
2023-05-11T01:16:42.111Z,7.60
2023-05-11T01:19:09.373Z,7.32
2023-05-11T01:21:37.611Z,7.78
2023-05-11T01:24:24.000Z,7.55
2023-05-11T01:27:09.579Z,7.65
2023-05-11T01:29:39.662Z,8.18
2023-05-11T01:32:08.615Z,8.38
2023-05-11T01:34:36.654Z,7.25
2023-05-11T01:37:09.178Z,7.40
2023-05-11T01:39:38.023Z,7.55
2023-05-11T01:42:07.536Z,7.65
2023-05-11T01:44:35.519Z,8.00
2023-05-11T01:47:02.962Z,8.13
2023-05-11T01:49:32.739Z,9.05
2023-05-11T01:52:00.373Z,9.10
2023-05-11T01:54:28.181Z,8.27
2023-05-11T01:56:56.144Z,8.98
2023-05-11T01:59:24.098Z,9.05
2023-05-11T02:01:51.373Z,9.32
2023-05-11T02:04:20.279Z,9.02
2023-05-11T02:06:48.032Z,8.45
2023-05-11T02:09:17.504Z,9.02
2023-05-11T02:11:45.671Z,8.05
2023-05-11T02:14:13.183Z,8.70
2023-05-11T02:16:40.891Z,9.00
2023-05-11T02:19:08.973Z,9.02
2023-05-11T02:21:37.101Z,8.52
2023-05-11T02:24:06.077Z,8.93
2023-05-11T02:26:33.137Z,9.02
2023-05-11T02:29:00.319Z,9.45
2023-05-11T02:31:31.268Z,9.23
2023-05-11T02:34:02.436Z,9.23
2023-05-11T02:36:30.258Z,10.13
2023-05-11T02:39:00.552Z,9.98
2023-05-11T02:41:29.730Z,9.10
2023-05-11T02:43:59.366Z,9.40
2023-05-11T02:46:27.640Z,9.35
2023-05-11T02:48:57.366Z,9.18
2023-05-11T02:51:27.921Z,9.07
2023-05-11T02:53:57.331Z,8.73
2023-05-11T02:56:24.897Z,10.05
2023-05-11T02:58:52.259Z,9.65
2023-05-11T03:01:19.790Z,9.32
2023-05-11T03:03:47.167Z,9.63
2023-05-11T03:06:14.425Z,9.93
2023-05-11T03:08:42.095Z,9.35
2023-05-11T03:11:10.818Z,9.77
2023-05-11T03:13:38.008Z,9.00
2023-05-11T03:16:06.326Z,9.07
2023-05-11T03:18:34.005Z,9.73
2023-05-11T03:21:01.391Z,9.05
2023-05-11T03:23:29.032Z,8.73
2023-05-11T03:25:56.498Z,8.43
2023-05-11T03:28:24.805Z,9.15
2023-05-11T03:30:52.722Z,9.20
2023-05-11T03:33:21.032Z,9.27
2023-05-11T03:35:48.963Z,10.25
2023-05-11T03:38:16.611Z,9.68
2023-05-11T03:40:43.997Z,10.23
2023-05-11T03:43:12.774Z,10.27
2023-05-11T03:45:41.246Z,9.68
2023-05-11T03:48:09.085Z,10.82
2023-05-11T03:50:36.950Z,10.07
2023-05-11T03:53:05.223Z,10.50
2023-05-11T03:55:32.931Z,10.93
2023-05-11T03:58:00.786Z,11.18
2023-05-11T04:00:30.720Z,11.20
2023-05-11T04:02:58.009Z,10.63
2023-05-11T04:05:25.220Z,12.00
2023-05-11T04:07:52.376Z,11.60
2023-05-11T04:10:19.705Z,10.07
2023-05-11T04:12:46.975Z,10.43
2023-05-11T04:15:14.049Z,11.27
2023-05-11T04:17:41.118Z,11.82
2023-05-11T04:20:08.616Z,10.38
2023-05-11T04:22:35.887Z,10.23
2023-05-11T04:25:03.476Z,10.98
2023-05-11T04:27:34.204Z,9.88
2023-05-11T04:30:01.909Z,11.00
2023-05-11T04:32:30.260Z,10.80
2023-05-11T04:34:57.352Z,11.68
2023-05-11T04:37:24.630Z,10.25
2023-05-11T04:39:51.768Z,10.65
2023-05-11T04:42:18.813Z,10.40
2023-05-11T04:44:45.892Z,10.40
2023-05-11T04:47:13.011Z,10.73
2023-05-11T04:49:40.354Z,11.80
2023-05-11T04:52:07.417Z,11.02
2023-05-11T04:54:34.723Z,11.30
2023-05-11T04:57:01.823Z,10.32
2023-05-11T04:59:28.928Z,11.35
2023-05-11T05:01:56.078Z,11.40
2023-05-11T05:04:23.219Z,9.95
2023-05-11T05:06:50.327Z,10.90
2023-05-11T05:09:17.558Z,10.95
2023-05-11T05:11:44.842Z,10.63
2023-05-11T05:14:12.066Z,10.63
2023-05-11T05:16:39.135Z,10.55
2023-05-11T05:19:06.595Z,10.80
2023-05-11T05:21:35.639Z,9.68
2023-05-11T05:24:06.889Z,10.38
2023-05-11T05:26:34.181Z,11.10
2023-05-11T05:29:01.301Z,9.38
2023-05-11T05:31:28.621Z,10.50
2023-05-11T05:33:55.786Z,11.98
2023-05-11T05:36:22.796Z,11.30
2023-05-11T05:38:49.937Z,10.77
2023-05-11T05:41:19.615Z,10.15
2023-05-11T05:43:46.830Z,10.43
2023-05-11T05:46:13.983Z,10.98
2023-05-11T05:48:41.754Z,11.38
2023-05-11T05:51:09.098Z,11.05
2023-05-11T05:53:37.837Z,9.18
2023-05-11T05:56:05.092Z,10.45
2023-05-11T05:58:32.387Z,10.40
2023-05-11T06:00:59.450Z,9.85
2023-05-11T06:03:28.533Z,10.13
2023-05-11T06:05:56.737Z,10.77
2023-05-11T06:08:23.905Z,10.60
2023-05-11T06:10:51.070Z,9.00
2023-05-11T06:13:18.215Z,10.43
2023-05-11T06:15:45.388Z,10.38
2023-05-11T06:18:12.620Z,9.25
2023-05-11T06:20:40.002Z,9.65
2023-05-11T06:23:07.924Z,9.65
2023-05-11T06:25:35.787Z,11.38
2023-05-11T06:28:03.113Z,11.93
2023-05-11T06:30:31.297Z,9.85
2023-05-11T06:32:58.479Z,8.32
2023-05-11T06:35:25.782Z,8.93
2023-05-11T06:37:52.847Z,8.68
2023-05-11T06:40:20.088Z,9.00
2023-05-11T06:42:47.369Z,8.45
2023-05-11T06:45:14.799Z,7.78
2023-05-11T06:47:42.312Z,7.30
2023-05-11T06:50:09.900Z,7.88
2023-05-11T06:52:37.044Z,6.95
2023-05-11T06:55:04.616Z,6.85
2023-05-11T06:57:31.814Z,6.45
2023-05-11T06:59:58.967Z,6.90
2023-05-11T07:02:26.229Z,6.70
2023-05-11T07:04:53.647Z,5.85
2023-05-11T07:07:20.986Z,5.35
2023-05-11T07:09:48.515Z,5.20
2023-05-11T07:12:15.909Z,5.00
2023-05-11T07:14:43.195Z,5.35
2023-05-11T07:17:10.806Z,5.18
2023-05-11T07:19:38.005Z,3.97
2023-05-11T07:22:05.956Z,3.95
2023-05-11T07:24:33.146Z,3.58
2023-05-11T07:27:01.944Z,2.67
2023-05-11T07:29:29.103Z,3.70
2023-05-11T07:31:56.292Z,2.63
2023-05-11T07:34:24.318Z,2.63
2023-05-11T07:36:51.566Z,2.22
2023-05-11T07:39:19.654Z,1.83
2023-05-11T07:41:47.180Z,2.78
2023-05-11T07:44:14.993Z,2.33
2023-05-11T07:46:42.365Z,2.63
2023-05-11T07:49:17.358Z,2.20
2023-05-11T07:51:48.041Z,2.97
2023-05-11T07:54:15.345Z,3.13
2023-05-11T07:56:42.647Z,3.05
2023-05-11T07:59:10.092Z,3.17
2023-05-11T08:01:37.779Z,3.15
2023-05-11T08:04:05.067Z,3.40
2023-05-11T08:06:32.521Z,3.38
2023-05-11T08:08:59.970Z,2.83
2023-05-11T08:11:27.477Z,2.97
2023-05-11T08:13:54.804Z,3.13
2023-05-11T08:16:22.756Z,3.15
2023-05-11T08:18:49.940Z,3.10
2023-05-11T08:21:17.625Z,3.08
2023-05-11T08:23:45.853Z,2.75
2023-05-11T08:26:13.042Z,2.38
2023-05-11T08:28:40.153Z,2.30
2023-05-11T08:31:07.593Z,2.45
2023-05-11T08:33:38.051Z,2.00
2023-05-11T08:36:06.314Z,2.03
2023-05-11T08:38:33.491Z,2.20
2023-05-11T08:41:02.150Z,2.15
2023-05-11T08:43:30.555Z,2.05
2023-05-11T08:46:01.894Z,1.88
2023-05-11T08:48:30.558Z,1.85
2023-05-11T08:50:57.798Z,1.67
2023-05-11T08:53:25.063Z,1.30
2023-05-11T08:55:52.339Z,1.60
2023-05-11T08:58:22.316Z,1.77
2023-05-11T09:00:50.588Z,1.65
2023-05-11T09:03:19.828Z,1.42
2023-05-11T09:05:47.538Z,1.38
2023-05-11T09:08:15.259Z,1.10
2023-05-11T09:10:43.655Z,0.90
2023-05-11T09:13:10.959Z,0.73
2023-05-11T09:15:38.464Z,1.00
2023-05-11T09:18:06.089Z,0.70
2023-05-11T09:20:35.485Z,0.90
2023-05-11T09:23:02.975Z,0.80
2023-05-11T09:25:34.867Z,0.73
2023-05-11T09:28:02.192Z,0.93
2023-05-11T09:30:29.377Z,0.70
2023-05-11T09:32:57.769Z,0.73
2023-05-11T09:35:28.694Z,0.60
2023-05-11T09:38:00.464Z,0.60
2023-05-11T09:43:01.278Z,0.65
2023-05-11T09:45:38.802Z,0.57
2023-05-11T09:48:07.516Z,0.50
2023-05-11T09:50:35.836Z,0.40
2023-05-11T09:53:03.282Z,0.30
2023-05-11T09:55:30.684Z,0.50
2023-05-11T09:57:59.990Z,0.45
2023-05-11T10:00:28.063Z,0.47
2023-05-11T10:03:05.867Z,0.40
2023-05-11T10:05:34.448Z,0.57
2023-05-11T10:08:03.097Z,0.50
2023-05-11T10:10:31.024Z,0.40
2023-05-11T10:13:02.268Z,0.30
2023-05-11T10:15:30.684Z,0.43
2023-05-11T10:17:59.995Z,0.40
2023-05-11T10:20:27.888Z,0.30
2023-05-11T10:22:56.178Z,0.40
2023-05-11T10:25:24.210Z,0.20
2023-05-11T10:27:52.110Z,0.25
2023-05-11T10:30:19.518Z,0.20
2023-05-11T10:32:47.302Z,0.30
2023-05-11T10:35:14.854Z,0.17
2023-05-11T10:37:43.406Z,0.30
2023-05-11T10:40:11.658Z,0.25
2023-05-11T10:42:57.944Z,0.30
2023-05-11T10:45:50.717Z,0.40
2023-05-11T10:48:36.671Z,0.30
2023-05-11T10:51:12.745Z,0.30
2023-05-11T10:54:01.385Z,0.40
2023-05-11T10:56:31.756Z,0.28
2023-05-11T10:58:59.021Z,0.20
2023-05-11T11:01:32.763Z,0.30
2023-05-11T11:04:02.673Z,0.30
2023-05-11T11:06:29.896Z,0.50
2023-05-11T11:08:58.421Z,0.30
2023-05-11T11:11:29.676Z,0.40
2023-05-11T11:13:57.698Z,0.60
2023-05-11T11:16:26.208Z,0.50
2023-05-11T11:18:53.723Z,0.52
2023-05-11T11:21:39.824Z,0.47
2023-05-11T11:24:07.328Z,0.40
2023-05-11T11:26:48.066Z,0.40
2023-05-11T11:29:15.953Z,0.67
2023-05-11T11:31:43.691Z,0.40
2023-05-11T11:34:25.862Z,0.55
2023-05-11T11:36:55.815Z,0.70
2023-05-11T11:39:25.389Z,1.02
2023-05-11T11:42:02.653Z,0.80
2023-05-11T11:44:29.823Z,0.95
2023-05-11T11:47:12.192Z,0.65
2023-05-11T11:49:40.410Z,1.13
2023-05-11T11:52:14.436Z,1.00
2023-05-11T11:54:42.062Z,1.10
2023-05-11T11:57:28.183Z,1.40
2023-05-11T11:59:55.705Z,1.58
2023-05-11T12:02:23.609Z,1.73
2023-05-11T12:05:09.658Z,1.85
2023-05-11T12:07:40.431Z,2.05
2023-05-11T12:10:07.837Z,2.13
2023-05-11T12:12:35.961Z,2.17
2023-05-11T12:15:04.030Z,2.13
2023-05-11T12:17:32.623Z,2.15
2023-05-11T12:20:13.327Z,2.80
2023-05-11T12:22:40.714Z,2.67
2023-05-11T12:25:08.962Z,2.42
2023-05-11T12:27:36.523Z,3.33
2023-05-11T12:30:03.662Z,3.13
2023-05-11T12:32:31.343Z,2.58
2023-05-11T12:35:05.274Z,3.00
2023-05-11T12:37:32.610Z,3.30
2023-05-11T12:40:00.483Z,3.30
2023-05-11T12:42:27.985Z,2.92
2023-05-11T12:44:56.032Z,2.85
2023-05-11T12:47:23.284Z,3.08
2023-05-11T12:49:51.129Z,2.55
2023-05-11T12:52:18.258Z,2.72
2023-05-11T12:54:51.799Z,2.70
2023-05-11T12:57:28.853Z,3.65
2023-05-11T13:00:11.945Z,3.67
2023-05-11T13:02:46.330Z,2.97
2023-05-11T13:05:14.720Z,3.72
2023-05-11T13:07:44.000Z,3.70
2023-05-11T13:10:12.500Z,3.20
2023-05-11T13:12:50.431Z,3.47
2023-05-11T13:15:17.799Z,3.85
2023-05-11T13:17:45.240Z,2.80
2023-05-11T13:20:31.835Z,2.85
2023-05-11T13:23:09.757Z,3.20
2023-05-11T13:25:57.142Z,3.22
2023-05-11T13:28:24.737Z,3.25
2023-05-11T13:30:52.775Z,3.78
2023-05-11T13:33:20.027Z,3.60
2023-05-11T13:35:47.293Z,3.35
2023-05-11T13:38:14.523Z,3.67
2023-05-11T13:40:41.709Z,3.20
2023-05-11T13:43:08.779Z,3.00
2023-05-11T13:45:41.468Z,2.92
2023-05-11T13:48:08.837Z,3.20
2023-05-11T13:50:36.029Z,3.00
2023-05-11T13:53:03.134Z,2.35
2023-05-11T13:55:30.648Z,2.65
2023-05-11T13:57:58.013Z,2.67
2023-05-11T14:00:25.573Z,3.40
2023-05-11T14:02:53.062Z,3.15
2023-05-11T14:05:20.412Z,2.78
2023-05-11T14:07:49.012Z,2.70
2023-05-11T14:10:17.128Z,2.67
2023-05-11T14:12:44.705Z,2.50
2023-05-11T14:15:12.082Z,2.30
2023-05-11T14:17:41.667Z,2.25
2023-05-11T14:20:09.200Z,2.10
2023-05-11T14:22:36.494Z,2.35
2023-05-11T14:25:03.564Z,2.20
2023-05-11T14:27:30.803Z,2.78
2023-05-11T14:29:58.049Z,2.63
2023-05-11T14:32:25.450Z,2.08
2023-05-11T14:34:52.780Z,1.90
2023-05-11T14:37:20.124Z,2.72
2023-05-11T14:39:47.338Z,2.28
2023-05-11T14:42:15.685Z,2.10
2023-05-11T14:44:42.843Z,2.40
2023-05-11T14:47:10.034Z,2.35
2023-05-11T14:49:37.285Z,2.40
2023-05-11T14:52:04.627Z,2.13
2023-05-11T14:54:31.835Z,2.20
2023-05-11T14:56:59.753Z,2.08
2023-05-11T14:59:27.143Z,1.98
2023-05-11T15:01:54.552Z,2.08
2023-05-11T15:04:22.432Z,1.67
2023-05-11T15:06:49.895Z,2.17
2023-05-11T15:09:17.201Z,1.80
2023-05-11T15:11:44.514Z,2.20
2023-05-11T15:14:11.986Z,2.15
2023-05-11T15:16:39.264Z,1.60
2023-05-11T15:19:07.212Z,1.70
2023-05-11T15:21:34.506Z,1.77
2023-05-11T15:24:01.676Z,1.73
2023-05-11T15:26:28.812Z,1.60
2023-05-11T15:28:56.317Z,1.50
2023-05-11T15:31:23.458Z,1.33
2023-05-11T15:33:50.785Z,1.30
2023-05-11T15:36:18.421Z,1.23
2023-05-11T15:38:45.710Z,1.65
2023-05-11T15:41:12.886Z,1.30
2023-05-11T15:43:40.287Z,1.65
2023-05-11T15:46:07.736Z,1.27
2023-05-11T15:48:35.076Z,1.40
2023-05-11T15:51:02.879Z,1.02
2023-05-11T15:53:29.987Z,1.33
2023-05-11T15:55:57.399Z,1.67
2023-05-11T15:58:24.728Z,1.10
2023-05-11T16:00:51.996Z,1.40
2023-05-11T16:03:19.815Z,1.23
2023-05-11T16:05:47.336Z,1.50
2023-05-11T16:08:14.670Z,1.23
2023-05-11T16:10:41.847Z,1.13
2023-05-11T16:13:09.747Z,1.70
2023-05-11T16:15:36.945Z,1.40
2023-05-11T16:18:05.368Z,1.58
2023-05-11T16:20:32.986Z,1.60
2023-05-11T16:23:00.148Z,1.80
2023-05-11T16:25:27.291Z,1.70
2023-05-11T16:27:54.554Z,1.45
2023-05-11T16:30:25.017Z,1.85
2023-05-11T16:32:53.930Z,1.30
2023-05-11T16:35:21.425Z,1.40
2023-05-11T16:37:48.714Z,1.40
2023-05-11T16:40:19.423Z,1.38
2023-05-11T16:42:47.405Z,1.10
2023-05-11T16:45:15.179Z,0.93
2023-05-11T16:47:42.594Z,0.70
2023-05-11T16:50:10.912Z,0.70
2023-05-11T16:52:37.947Z,0.70
2023-05-11T16:55:05.748Z,0.80
2023-05-11T16:57:33.031Z,0.80
2023-05-11T17:00:00.167Z,0.98
2023-05-11T17:02:27.521Z,0.88
2023-05-11T17:04:55.445Z,1.10
2023-05-11T17:07:22.652Z,1.00
2023-05-11T17:09:52.234Z,1.00
2023-05-11T17:12:19.318Z,1.20
2023-05-11T17:14:46.512Z,1.17
2023-05-11T17:17:14.302Z,1.13
2023-05-11T17:19:41.612Z,1.70
2023-05-11T17:22:09.221Z,1.23
2023-05-11T17:24:36.348Z,1.20
2023-05-11T17:27:03.671Z,1.42
2023-05-11T17:29:31.051Z,1.65
2023-05-11T17:31:58.271Z,1.55
2023-05-11T17:34:28.307Z,1.80
2023-05-11T17:36:55.882Z,1.42
2023-05-11T17:39:23.143Z,2.20
2023-05-11T17:41:50.233Z,2.33
2023-05-11T17:44:17.795Z,1.92
2023-05-11T17:46:44.926Z,2.00
2023-05-11T17:49:12.177Z,2.50
2023-05-11T17:51:39.576Z,2.80
2023-05-11T17:54:06.863Z,3.13
2023-05-11T17:56:34.174Z,3.40
2023-05-11T17:59:01.347Z,2.88
2023-05-11T18:01:28.744Z,3.63
2023-05-11T18:03:56.105Z,3.95
2023-05-11T18:06:23.636Z,3.72
2023-05-11T18:08:51.196Z,4.32
2023-05-11T18:11:18.479Z,4.15
2023-05-11T18:13:46.117Z,4.65
2023-05-11T18:16:13.492Z,4.80
2023-05-11T18:18:42.458Z,5.45
2023-05-11T18:21:10.828Z,4.85
2023-05-11T18:23:37.986Z,5.07
2023-05-11T18:26:05.280Z,5.13
2023-05-11T18:28:32.609Z,5.05
2023-05-11T18:31:00.053Z,4.57
2023-05-11T18:33:27.393Z,3.90
2023-05-11T18:35:55.102Z,4.88
2023-05-11T18:38:22.397Z,4.72
2023-05-11T18:40:49.731Z,5.05
2023-05-11T18:43:16.907Z,4.93
2023-05-11T18:45:45.859Z,5.15
2023-05-11T18:48:13.190Z,4.47
2023-05-11T18:50:40.564Z,5.50
2023-05-11T18:53:08.464Z,4.88
2023-05-11T18:55:44.914Z,4.97
2023-05-11T18:58:20.196Z,5.00
2023-05-11T19:00:48.515Z,6.15
2023-05-11T19:03:16.300Z,5.97
2023-05-11T19:05:43.697Z,4.75
2023-05-11T19:08:10.784Z,5.22
2023-05-11T19:10:39.596Z,6.18
2023-05-11T19:13:07.593Z,5.65
2023-05-11T19:15:34.957Z,5.15
2023-05-11T19:18:02.257Z,5.63
2023-05-11T19:20:29.403Z,4.85
2023-05-11T19:22:56.582Z,4.90
2023-05-11T19:25:23.728Z,5.10
2023-05-11T19:27:51.050Z,6.15
2023-05-11T19:30:18.660Z,5.47
2023-05-11T19:32:46.108Z,4.72
2023-05-11T19:35:14.683Z,4.75
2023-05-11T19:37:42.539Z,4.47
2023-05-11T19:40:33.710Z,4.28
2023-05-11T19:42:57.383Z,5.25
2023-05-11T19:45:24.919Z,4.80
2023-05-11T19:47:52.397Z,4.43
2023-05-11T19:50:22.732Z,5.22
2023-05-11T19:52:51.488Z,4.50
2023-05-11T19:55:18.630Z,5.03
2023-05-11T19:57:45.674Z,4.82
2023-05-11T20:00:15.136Z,6.03
2023-05-11T20:02:42.379Z,5.35
2023-05-11T20:05:09.781Z,4.30
2023-05-11T20:07:37.086Z,6.13
2023-05-11T20:10:04.242Z,5.47
2023-05-11T20:12:31.319Z,4.18
2023-05-11T20:14:58.478Z,4.95
2023-05-11T20:17:26.032Z,5.30
2023-05-11T20:19:53.252Z,5.38
2023-05-11T20:22:22.522Z,4.82
2023-05-11T20:24:49.725Z,4.93
2023-05-11T20:27:16.871Z,4.95
2023-05-11T20:29:44.112Z,5.70
2023-05-11T20:32:11.341Z,5.40
2023-05-11T20:34:39.020Z,5.25
2023-05-11T20:37:06.525Z,5.35
2023-05-11T20:39:33.619Z,6.47
2023-05-11T20:42:00.765Z,6.35
2023-05-11T20:44:28.432Z,6.28
2023-05-11T20:46:55.699Z,6.32
2023-05-11T20:49:37.545Z,5.03
2023-05-11T20:52:06.072Z,4.63
2023-05-11T20:54:34.858Z,5.97
2023-05-11T20:57:05.118Z,5.22
2023-05-11T21:02:02.941Z,6.00
2023-05-11T21:04:31.392Z,5.43
2023-05-11T21:06:58.593Z,4.82
2023-05-11T21:09:25.796Z,4.80
2023-05-11T21:11:53.369Z,5.35
2023-05-11T21:14:20.585Z,4.10
2023-05-11T21:16:48.125Z,4.57
2023-05-11T21:19:19.772Z,3.70
2023-05-11T21:21:49.432Z,4.07
2023-05-11T21:24:16.717Z,3.55
2023-05-11T21:26:47.897Z,4.25
2023-05-11T21:29:15.341Z,3.60
2023-05-11T21:31:42.411Z,3.30
2023-05-11T21:34:09.514Z,4.15
2023-05-11T21:36:38.821Z,3.80
2023-05-11T21:39:06.153Z,3.30
2023-05-11T21:41:33.285Z,3.80
2023-05-11T21:44:00.714Z,3.13
2023-05-11T21:46:27.917Z,3.10
2023-05-11T21:48:55.201Z,3.53
2023-05-11T21:51:22.483Z,3.35
2023-05-11T21:53:49.662Z,3.20
2023-05-11T21:56:16.956Z,3.80
2023-05-11T21:58:44.030Z,3.65
2023-05-11T22:01:11.206Z,3.85
2023-05-11T22:03:38.948Z,4.75
2023-05-11T22:06:06.873Z,4.25
2023-05-11T22:08:33.957Z,4.30
2023-05-11T22:11:01.558Z,4.28
2023-05-11T22:13:28.812Z,4.03
2023-05-11T22:15:56.009Z,4.78
2023-05-11T22:18:23.251Z,4.78
2023-05-11T22:20:50.380Z,5.10
2023-05-11T22:23:18.137Z,5.10
2023-05-11T22:25:45.260Z,5.30
2023-05-11T22:28:12.351Z,4.97
2023-05-11T22:30:39.476Z,4.60
2023-05-11T22:33:06.670Z,5.07
2023-05-11T22:35:33.866Z,5.45
2023-05-11T22:38:01.823Z,4.85
2023-05-11T22:40:29.038Z,5.35
2023-05-11T22:42:56.397Z,5.03
2023-05-11T22:45:23.473Z,5.88
2023-05-11T22:47:50.823Z,6.15
2023-05-11T22:50:18.290Z,5.78
2023-05-11T22:52:45.763Z,6.53
2023-05-11T22:55:12.995Z,6.70
2023-05-11T22:57:40.040Z,5.88
2023-05-11T23:00:09.652Z,6.20
2023-05-11T23:02:36.860Z,7.30
2023-05-11T23:05:05.223Z,5.95
2023-05-11T23:07:32.273Z,6.25
2023-05-11T23:09:59.538Z,7.20
2023-05-11T23:12:26.818Z,6.32
2023-05-11T23:14:53.959Z,7.07
2023-05-11T23:17:21.105Z,7.70
2023-05-11T23:19:48.475Z,8.25
2023-05-11T23:22:15.562Z,8.15
2023-05-11T23:24:42.676Z,7.72
2023-05-11T23:27:09.815Z,7.97
2023-05-11T23:29:37.183Z,8.82
2023-05-11T23:32:04.534Z,9.00
2023-05-11T23:34:31.691Z,8.25
2023-05-11T23:36:58.884Z,8.40
2023-05-11T23:39:25.959Z,7.75
2023-05-11T23:41:53.102Z,10.00
2023-05-11T23:44:20.254Z,8.80
2023-05-11T23:46:47.383Z,8.30
2023-05-11T23:49:14.495Z,9.35
2023-05-11T23:51:41.658Z,8.68
2023-05-11T23:54:08.949Z,9.50
2023-05-11T23:56:36.114Z,8.77
2023-05-11T23:59:03.270Z,10.05
